Time;durP1;ratioP1;P1;durP2;ratioP2;P2;SDS_P1;SDS_P2;PMS_P1;PMS_P2;Temp;Humidity;BMP_temperature;BMP_pressure;BME280_temperature;BME280_humidity;BME280_pressure;Samples;Min_cycle;Max_cycle;Signal;HPM_P1;HPM_P2
2022/03/02 00:01:58;;;;;;;24.30;12.63;;;2.20;92.40;;;;;;5054985;28;20223;-74
2022/03/02 00:04:46;;;;;;;24.53;12.13;;;2.20;92.40;;;;;;5054626;28;20328;-74
2022/03/02 00:07:35;;;;;;;24.23;12.93;;;2.10;92.60;;;;;;5060071;28;20215;-74
2022/03/02 00:10:24;;;;;;;30.47;14.07;;;2.10;93.10;;;;;;5057853;28;20217;-74
2022/03/02 00:13:14;;;;;;;27.07;14.70;;;2.00;93.30;;;;;;5057219;28;20217;-74
2022/03/02 00:16:03;;;;;;;26.03;13.63;;;2.00;93.30;;;;;;5059229;28;20224;-74
2022/03/02 00:18:51;;;;;;;26.13;13.83;;;2.00;93.50;;;;;;5058972;28;20229;-74
2022/03/02 00:21:40;;;;;;;30.27;14.33;;;2.00;94.10;;;;;;5063385;28;20235;-74
2022/03/02 00:24:29;;;;;;;30.37;14.37;;;2.00;94.40;;;;;;5062563;28;20242;-73
2022/03/02 00:27:18;;;;;;;30.43;14.37;;;2.00;94.40;;;;;;5059675;28;20224;-75
2022/03/02 00:30:11;;;;;;;28.47;15.17;;;2.00;94.00;;;;;;5054796;28;21107;-74
2022/03/02 00:33:01;;;;;;;24.97;14.20;;;1.90;95.00;;;;;;5067748;28;20679;-73
2022/03/02 00:35:52;;;;;;;30.97;14.30;;;1.90;94.80;;;;;;5073088;28;20231;-72
2022/03/02 00:38:41;;;;;;;30.63;14.87;;;1.90;95.40;;;;;;5074887;28;20220;-73
2022/03/02 00:41:33;;;;;;;32.00;15.70;;;1.90;96.00;;;;;;5076824;28;20219;-73
2022/03/02 00:44:21;;;;;;;31.97;16.30;;;1.90;96.30;;;;;;5075944;28;20216;-73
2022/03/02 00:47:12;;;;;;;31.57;16.03;;;1.90;96.90;;;;;;5061394;28;20216;-74
2022/03/02 00:50:02;;;;;;;36.27;17.37;;;1.90;97.70;;;;;;5077696;28;20219;-74
2022/03/02 00:52:51;;;;;;;34.43;16.77;;;1.80;97.90;;;;;;5080660;28;20232;-74
2022/03/02 00:55:40;;;;;;;32.77;16.57;;;1.80;98.80;;;;;;5063910;28;20720;-74
2022/03/02 00:58:32;;;;;;;32.63;15.27;;;1.70;99.60;;;;;;5069762;28;20216;-74
2022/03/02 01:01:21;;;;;;;33.90;16.97;;;1.80;99.40;;;;;;5066111;28;20697;-74
2022/03/02 01:04:11;;;;;;;36.87;16.77;;;1.70;99.90;;;;;;5078852;28;20219;-75
2022/03/02 01:07:00;;;;;;;34.87;18.03;;;1.80;99.90;;;;;;5080313;28;20228;-74
2022/03/02 01:09:49;;;;;;;38.40;17.23;;;1.80;99.90;;;;;;5078390;28;20231;-74
2022/03/02 01:12:39;;;;;;;37.57;17.60;;;1.90;99.90;;;;;;5063325;28;20220;-75
2022/03/02 01:15:28;;;;;;;33.07;16.70;;;1.80;99.90;;;;;;5073341;28;20216;-74
2022/03/02 01:18:16;;;;;;;35.00;18.07;;;1.90;99.90;;;;;;5061401;28;20233;-75
2022/03/02 01:21:06;;;;;;;37.00;17.53;;;1.80;99.90;;;;;;5073864;28;20212;-75
2022/03/02 01:23:57;;;;;;;34.13;17.33;;;1.80;99.90;;;;;;5076424;28;20222;-75
2022/03/02 01:26:50;;;;;;;34.13;16.97;;;1.90;99.90;;;;;;5059659;28;20825;-75
2022/03/02 01:29:39;;;;;;;36.50;17.23;;;1.80;99.90;;;;;;5075471;28;20249;-75
2022/03/02 01:32:27;;;;;;;36.40;17.90;;;1.90;99.90;;;;;;5073648;28;20230;-75
2022/03/02 01:35:16;;;;;;;35.27;17.73;;;2.00;99.80;;;;;;5073231;28;21013;-74
2022/03/02 01:38:06;;;;;;;33.87;17.93;;;1.90;99.90;;;;;;5072955;28;20219;-75
2022/03/02 01:40:55;;;;;;;34.37;16.93;;;1.90;99.90;;;;;;5057856;28;20219;-74
2022/03/02 01:43:47;;;;;;;36.03;17.67;;;1.80;99.90;;;;;;5060845;28;20304;-75
2022/03/02 01:46:36;;;;;;;33.13;17.43;;;1.80;99.90;;;;;;5059856;28;20654;-74
2022/03/02 01:49:25;;;;;;;34.07;17.77;;;1.80;99.90;;;;;;5058951;28;20800;-75
2022/03/02 01:52:14;;;;;;;31.27;17.97;;;1.80;99.90;;;;;;5073031;28;20226;-74
2022/03/02 01:55:05;;;;;;;36.33;17.83;;;1.80;99.90;;;;;;5075100;28;20232;-74
2022/03/02 01:57:54;;;;;;;30.87;17.37;;;1.70;99.90;;;;;;5073520;28;20246;-74
2022/03/02 02:00:43;;;;;;;37.80;18.93;;;1.80;99.90;;;;;;5056846;28;20931;-74
2022/03/02 02:03:32;;;;;;;38.50;18.60;;;1.60;99.90;;;;;;5061982;28;20307;-74
2022/03/02 02:06:20;;;;;;;42.30;19.40;;;1.70;99.90;;;;;;5059757;28;20211;-73
2022/03/02 02:09:09;;;;;;;39.37;19.13;;;1.70;99.90;;;;;;5079027;28;20219;-73
2022/03/02 02:11:59;;;;;;;38.00;20.17;;;1.70;99.90;;;;;;5063679;28;20238;-74
2022/03/02 02:14:48;;;;;;;41.10;19.90;;;1.70;99.90;;;;;;5075460;28;20700;-74
2022/03/02 02:17:37;;;;;;;37.77;19.90;;;1.60;99.90;;;;;;5058893;28;20227;-74
2022/03/02 02:20:25;;;;;;;37.10;19.87;;;1.60;99.90;;;;;;5078335;28;20908;-72
2022/03/02 02:23:15;;;;;;;40.03;19.27;;;1.50;99.90;;;;;;5077358;28;20226;-75
2022/03/02 02:26:06;;;;;;;37.43;18.67;;;1.40;99.90;;;;;;5078348;28;20235;-74
2022/03/02 02:28:56;;;;;;;40.80;20.60;;;1.30;99.90;;;;;;5061962;28;20225;-73
2022/03/02 02:31:44;;;;;;;41.67;19.80;;;1.20;99.90;;;;;;5075389;28;20222;-73
2022/03/02 02:34:33;;;;;;;41.43;20.67;;;1.20;99.90;;;;;;5059969;28;20222;-73
2022/03/02 02:37:23;;;;;;;36.90;20.03;;;1.20;99.90;;;;;;5077205;28;20233;-75
2022/03/02 02:40:16;;;;;;;38.57;19.13;;;1.10;99.90;;;;;;5076642;28;20223;-74
2022/03/02 02:43:07;;;;;;;40.63;19.93;;;1.10;99.90;;;;;;5077939;28;20219;-74
2022/03/02 02:45:56;;;;;;;37.10;19.03;;;1.10;99.90;;;;;;5072758;28;20291;-73
2022/03/02 02:48:45;;;;;;;44.00;20.20;;;1.00;99.90;;;;;;5073623;28;20220;-74
2022/03/02 02:51:33;;;;;;;41.57;20.17;;;1.00;99.90;;;;;;5059196;28;20219;-75
2022/03/02 02:54:26;;;;;;;41.47;19.97;;;1.00;99.90;;;;;;5076486;28;20239;-74
2022/03/02 02:57:16;;;;;;;38.83;19.40;;;1.00;99.90;;;;;;5064390;28;20226;-75
2022/03/02 03:00:10;;;;;;;40.43;20.20;;;0.90;99.90;;;;;;5063849;28;20238;-74
2022/03/02 03:03:00;;;;;;;45.60;20.83;;;0.90;99.90;;;;;;5063459;28;20227;-74
2022/03/02 03:05:51;;;;;;;42.47;20.37;;;1.00;99.90;;;;;;5078036;28;20849;-74
2022/03/02 03:08:40;;;;;;;42.37;20.67;;;0.90;99.90;;;;;;5074456;28;20693;-74
2022/03/02 03:11:28;;;;;;;38.40;19.70;;;0.90;99.90;;;;;;5064314;28;20218;-75
2022/03/02 03:14:18;;;;;;;43.50;20.77;;;0.90;99.90;;;;;;5064425;28;20231;-76
2022/03/02 03:17:07;;;;;;;40.70;19.47;;;1.00;99.90;;;;;;5062171;28;20238;-75
2022/03/02 03:19:56;;;;;;;38.90;20.03;;;1.00;99.90;;;;;;5062001;28;20313;-74
2022/03/02 03:22:45;;;;;;;40.53;20.10;;;1.00;99.90;;;;;;5065961;28;20707;-76
2022/03/02 03:25:34;;;;;;;48.60;21.00;;;1.10;99.90;;;;;;5078123;28;20285;-75
2022/03/02 03:28:23;;;;;;;41.40;20.63;;;1.20;99.90;;;;;;5077251;28;20223;-75
2022/03/02 03:31:13;;;;;;;40.53;20.27;;;1.10;99.90;;;;;;5079547;28;20211;-76
2022/03/02 03:34:01;;;;;;;40.67;20.30;;;1.00;99.90;;;;;;5079096;28;20536;-72
2022/03/02 03:36:52;;;;;;;36.60;20.13;;;0.90;99.90;;;;;;5064872;28;20231;-74
2022/03/02 03:39:42;;;;;;;39.97;20.77;;;0.90;99.90;;;;;;5063419;28;20216;-74
2022/03/02 03:42:31;;;;;;;39.87;19.83;;;1.00;99.90;;;;;;5067305;28;20224;-74
2022/03/02 03:45:20;;;;;;;46.90;20.53;;;1.00;99.90;;;;;;5083611;28;20219;-73
2022/03/02 03:48:10;;;;;;;41.67;20.10;;;1.10;99.90;;;;;;5061499;28;20249;-74
2022/03/02 03:50:59;;;;;;;39.90;19.87;;;1.00;99.90;;;;;;5078320;28;20227;-72
2022/03/02 03:53:47;;;;;;;39.10;19.17;;;1.00;99.90;;;;;;5069483;28;20239;-73
2022/03/02 03:56:36;;;;;;;45.83;20.63;;;1.10;99.90;;;;;;5077224;28;20547;-73
2022/03/02 03:59:25;;;;;;;47.83;20.83;;;1.10;99.90;;;;;;5066270;28;20220;-73
2022/03/02 04:02:13;;;;;;;43.53;20.53;;;1.10;99.90;;;;;;5080117;28;20241;-74
2022/03/02 04:05:04;;;;;;;39.13;19.97;;;1.20;99.90;;;;;;5067101;28;20806;-73
2022/03/02 04:07:53;;;;;;;41.10;20.60;;;1.10;99.90;;;;;;5081897;28;20250;-73
2022/03/02 04:10:42;;;;;;;40.67;20.73;;;1.00;99.90;;;;;;5079430;28;20224;-73
2022/03/02 04:13:31;;;;;;;45.70;20.37;;;1.10;99.90;;;;;;5083221;28;20211;-74
2022/03/02 04:16:23;;;;;;;44.77;20.73;;;1.10;99.90;;;;;;5069490;28;20231;-73
2022/03/02 04:19:16;;;;;;;41.77;20.57;;;1.20;99.90;;;;;;5089511;28;20711;-71
2022/03/02 04:22:06;;;;;;;44.03;21.37;;;1.10;99.90;;;;;;5078668;28;20227;-74
2022/03/02 04:24:55;;;;;;;42.67;21.43;;;1.10;99.90;;;;;;5076471;28;20854;-74
2022/03/02 04:27:43;;;;;;;43.77;21.33;;;1.10;99.90;;;;;;5078866;28;20212;-75
2022/03/02 04:30:32;;;;;;;44.73;21.37;;;1.00;99.90;;;;;;5066629;28;20223;-74
2022/03/02 04:33:21;;;;;;;39.10;20.83;;;1.10;99.90;;;;;;5078498;28;20242;-74
2022/03/02 04:36:10;;;;;;;41.33;20.40;;;1.10;99.90;;;;;;5078908;28;21164;-74
2022/03/02 04:39:00;;;;;;;43.33;20.73;;;1.00;99.90;;;;;;5061936;28;20214;-74
2022/03/02 04:41:49;;;;;;;44.40;20.57;;;0.90;99.90;;;;;;5076546;28;20231;-74
2022/03/02 04:44:37;;;;;;;44.50;22.10;;;0.80;99.90;;;;;;5065158;28;20636;-74
2022/03/02 04:47:26;;;;;;;44.90;21.37;;;0.90;99.90;;;;;;5077304;28;20293;-73
2022/03/02 04:50:16;;;;;;;46.30;21.80;;;0.70;99.90;;;;;;5063626;28;20243;-72
2022/03/02 04:53:05;;;;;;;44.63;22.17;;;0.60;99.90;;;;;;5080877;28;20227;-72
2022/03/02 04:55:55;;;;;;;44.60;21.73;;;0.80;99.90;;;;;;5064949;28;20236;-73
2022/03/02 04:58:43;;;;;;;49.17;23.07;;;0.80;99.90;;;;;;5078894;28;20219;-72
2022/03/02 05:01:32;;;;;;;47.57;21.97;;;0.70;99.90;;;;;;5077132;28;20590;-73
2022/03/02 05:04:21;;;;;;;41.13;21.03;;;0.70;99.90;;;;;;5073340;28;20219;-73
2022/03/02 05:07:09;;;;;;;46.23;21.80;;;0.50;99.90;;;;;;5064563;28;20215;-73
2022/03/02 05:09:59;;;;;;;44.67;21.20;;;0.60;99.90;;;;;;5060251;28;20248;-73
2022/03/02 05:12:50;;;;;;;47.83;22.67;;;0.50;99.90;;;;;;5074622;28;20239;-72
2022/03/02 05:15:38;;;;;;;45.67;21.67;;;0.50;99.90;;;;;;5079642;28;20227;-73
2022/03/02 05:18:27;;;;;;;44.43;21.83;;;0.50;99.90;;;;;;5073170;28;20237;-71
2022/03/02 05:21:16;;;;;;;43.63;21.90;;;0.50;99.90;;;;;;5064496;28;20215;-73
2022/03/02 05:24:06;;;;;;;53.00;22.47;;;0.50;99.90;;;;;;5077230;28;20216;-73
2022/03/02 05:26:54;;;;;;;47.97;20.83;;;0.40;99.90;;;;;;5074984;28;20726;-75
2022/03/02 05:29:44;;;;;;;42.03;20.30;;;0.30;99.90;;;;;;5063926;28;20228;-74
2022/03/02 05:32:33;;;;;;;45.47;21.30;;;0.30;99.90;;;;;;5075524;28;20292;-74
2022/03/02 05:35:21;;;;;;;40.93;19.90;;;0.30;99.90;;;;;;5060471;28;20221;-74
2022/03/02 05:38:10;;;;;;;43.67;20.37;;;0.30;99.90;;;;;;5077402;28;20221;-73
2022/03/02 05:40:59;;;;;;;49.43;20.40;;;0.40;99.90;;;;;;5080401;28;20222;-73
2022/03/02 05:43:48;;;;;;;38.47;19.33;;;0.30;99.90;;;;;;5064003;28;20337;-74
2022/03/02 05:46:39;;;;;;;47.23;20.40;;;0.30;99.90;;;;;;5080197;28;20716;-73
2022/03/02 05:49:28;;;;;;;41.27;19.40;;;0.40;99.90;;;;;;5064184;28;20295;-73
2022/03/02 05:52:17;;;;;;;42.83;19.90;;;0.50;99.90;;;;;;5072720;28;20222;-72
2022/03/02 05:55:08;;;;;;;42.40;20.03;;;0.50;99.90;;;;;;5079274;28;20236;-73
2022/03/02 05:57:57;;;;;;;42.37;19.90;;;0.40;99.90;;;;;;5060736;28;20238;-74
2022/03/02 06:00:45;;;;;;;42.33;19.93;;;0.60;99.90;;;;;;5073411;28;20836;-75
2022/03/02 06:03:35;;;;;;;37.47;19.07;;;0.60;99.90;;;;;;5078122;28;20675;-74
2022/03/02 06:06:24;;;;;;;38.93;18.83;;;0.60;99.90;;;;;;5066599;28;20223;-73
2022/03/02 06:09:13;;;;;;;41.43;19.97;;;0.60;99.90;;;;;;5075622;28;20588;-73
2022/03/02 06:12:02;;;;;;;39.83;19.17;;;0.50;99.90;;;;;;5065758;28;20215;-73
2022/03/02 06:14:51;;;;;;;42.23;20.43;;;0.50;99.90;;;;;;5069516;28;20212;-73
2022/03/02 06:17:41;;;;;;;39.10;18.63;;;0.60;99.90;;;;;;5075031;28;20239;-73
2022/03/02 06:20:32;;;;;;;43.93;20.07;;;0.70;99.90;;;;;;5066401;28;21125;-73
2022/03/02 06:23:22;;;;;;;38.37;19.50;;;0.70;99.90;;;;;;5066873;28;20226;-74
2022/03/02 06:26:12;;;;;;;41.93;19.07;;;0.60;99.90;;;;;;5077787;28;20219;-73
2022/03/02 06:29:00;;;;;;;39.20;18.57;;;0.80;99.90;;;;;;5065261;28;20234;-71
2022/03/02 06:31:50;;;;;;;42.13;19.47;;;0.80;99.90;;;;;;5065227;28;20231;-74
2022/03/02 06:34:38;;;;;;;42.37;19.70;;;0.90;99.90;;;;;;5065090;28;20221;-73
2022/03/02 06:37:33;;;;;;;41.10;18.23;;;0.90;99.90;;;;;;5075496;28;20216;-71
2022/03/02 06:40:22;;;;;;;44.07;20.00;;;0.90;99.90;;;;;;5063121;28;20223;-72
2022/03/02 06:43:18;;;;;;;41.43;19.67;;;0.90;99.90;;;;;;5063265;28;20218;-74
2022/03/02 06:46:11;;;;;;;38.83;18.90;;;1.00;99.90;;;;;;5078049;28;20309;-72
2022/03/02 06:49:06;;;;;;;40.13;20.07;;;1.00;99.90;;;;;;5080900;28;20706;-72
2022/03/02 06:51:59;;;;;;;40.20;18.90;;;1.10;99.90;;;;;;5074997;28;20224;-73
2022/03/02 06:54:51;;;;;;;38.80;18.60;;;1.20;99.90;;;;;;5078593;28;20246;-72
2022/03/02 06:57:44;;;;;;;37.63;17.90;;;1.20;99.90;;;;;;5061983;28;20227;-73
2022/03/02 07:00:33;;;;;;;40.97;18.67;;;1.30;99.90;;;;;;5063890;28;20394;-72
2022/03/02 07:03:28;;;;;;;43.90;18.53;;;1.30;99.90;;;;;;5076004;28;20223;-73
2022/03/02 07:06:17;;;;;;;40.07;18.80;;;1.30;99.90;;;;;;5073189;28;20219;-73
2022/03/02 07:09:08;;;;;;;39.13;17.33;;;1.40;99.90;;;;;;5074505;28;20224;-73
2022/03/02 07:12:00;;;;;;;35.40;17.10;;;1.50;99.90;;;;;;5076036;28;20230;-73
2022/03/02 07:14:51;;;;;;;33.97;18.23;;;1.50;99.90;;;;;;5075579;28;20235;-73
2022/03/02 07:17:40;;;;;;;35.63;17.00;;;1.70;99.90;;;;;;5065260;28;20281;-74
2022/03/02 07:20:29;;;;;;;34.53;17.33;;;1.70;99.90;;;;;;5063982;28;20231;-73
2022/03/02 07:23:18;;;;;;;37.17;17.00;;;1.80;99.90;;;;;;5078138;28;20216;-74
2022/03/02 07:26:09;;;;;;;34.17;15.37;;;1.80;99.90;;;;;;5078782;28;20702;-74
2022/03/02 07:29:01;;;;;;;38.00;16.30;;;1.70;99.90;;;;;;5078274;28;20230;-74
2022/03/02 07:31:52;;;;;;;37.80;17.10;;;1.70;99.90;;;;;;5060694;28;20614;-69
2022/03/02 07:34:42;;;;;;;40.53;17.47;;;1.70;99.90;;;;;;5061073;28;20212;-72
2022/03/02 07:37:32;;;;;;;42.73;18.27;;;1.80;99.90;;;;;;5060653;28;20987;-72
2022/03/02 07:40:20;;;;;;;38.50;20.30;;;1.80;99.90;;;;;;5067752;28;20232;-76
2022/03/02 07:43:14;;;;;;;37.23;17.27;;;1.80;99.90;;;;;;5079689;28;20230;-78
2022/03/02 07:46:04;;;;;;;40.30;18.33;;;2.00;99.90;;;;;;5066852;28;20334;-78
2022/03/02 07:48:52;;;;;;;39.03;17.90;;;2.10;99.90;;;;;;5069057;28;20212;-81
2022/03/02 07:51:44;;;;;;;40.37;18.13;;;2.10;99.90;;;;;;5086167;28;20223;-80
2022/03/02 07:54:37;;;;;;;38.03;17.93;;;2.00;99.90;;;;;;5084992;28;20219;-80
2022/03/02 07:57:29;;;;;;;36.83;18.03;;;2.10;99.90;;;;;;5072268;28;20247;-80
2022/03/02 08:00:18;;;;;;;46.60;20.17;;;2.10;99.90;;;;;;5082190;28;20235;-81
2022/03/02 08:03:10;;;;;;;38.07;18.53;;;2.10;99.90;;;;;;5084448;28;20262;-80
2022/03/02 08:06:01;;;;;;;42.57;20.17;;;2.30;99.90;;;;;;5084791;28;20229;-81
2022/03/02 08:08:51;;;;;;;34.20;17.17;;;2.40;99.90;;;;;;5067130;28;20250;-83
2022/03/02 08:11:40;;;;;;;33.97;16.80;;;2.60;99.90;;;;;;5069203;28;20220;-82
2022/03/02 08:14:29;;;;;;;37.27;16.37;;;2.80;99.90;;;;;;5088721;28;20582;-81
2022/03/02 08:17:19;;;;;;;33.57;14.93;;;6.20;86.30;;;;;;5067524;28;21084;-81
2022/03/02 08:20:11;;;;;;;27.93;14.57;;;8.20;75.00;;;;;;5068216;28;20231;-80
2022/03/02 08:23:05;;;;;;;34.87;16.47;;;6.70;71.90;;;;;;5071717;28;20272;-82
2022/03/02 08:25:55;;;;;;;30.00;14.50;;;4.80;78.10;;;;;;5083698;28;20277;-82
2022/03/02 08:28:46;;;;;;;29.63;15.53;;;5.70;79.60;;;;;;5083986;28;20242;-79
2022/03/02 08:31:37;;;;;;;36.47;16.10;;;7.60;76.70;;;;;;5075029;28;21187;-80
2022/03/02 08:34:26;;;;;;;36.50;15.93;;;8.70;71.40;;;;;;5068775;28;20247;-80
2022/03/02 08:37:17;;;;;;;38.30;16.67;;;10.00;67.90;;;;;;5084900;28;20220;-80
2022/03/02 08:40:08;;;;;;;31.90;16.20;;;11.60;64.40;;;;;;5068615;28;20893;-80
2022/03/02 08:43:00;;;;;;;35.60;16.83;;;12.40;60.00;;;;;;5065316;28;20228;-80
2022/03/02 08:45:51;;;;;;;36.07;16.53;;;12.40;59.70;;;;;;5067793;28;20237;-80
2022/03/02 08:48:44;;;;;;;29.47;16.07;;;12.40;59.50;;;;;;5081327;28;20219;-78
2022/03/02 08:51:35;;;;;;;25.90;14.60;;;13.10;58.60;;;;;;5068093;28;20225;-77
2022/03/02 08:54:27;;;;;;;24.00;13.87;;;11.70;58.20;;;;;;5065977;28;20223;-77
2022/03/02 08:57:16;;;;;;;28.00;14.63;;;13.40;58.40;;;;;;5079194;28;20306;-78
2022/03/02 09:00:08;;;;;;;27.92;16.30;;;12.50;56.90;;;;;;5064905;28;20448;-81
2022/03/02 09:02:57;;;;;;;27.52;16.52;;;12.40;58.50;;;;;;5067230;28;20613;-81
2022/03/02 09:05:49;;;;;;;30.67;15.35;;;12.40;57.70;;;;;;5075889;28;20238;-82
2022/03/02 09:08:39;;;;;;;24.88;14.27;;;13.00;58.60;;;;;;5065717;28;20247;-81
2022/03/02 09:11:29;;;;;;;27.08;14.13;;;13.10;57.10;;;;;;5070236;28;20220;-82
2022/03/02 09:14:19;;;;;;;26.10;14.20;;;12.40;58.20;;;;;;5082225;28;20226;-81
2022/03/02 09:17:08;;;;;;;29.37;13.60;;;9.70;59.60;;;;;;5071372;28;20246;-81
2022/03/02 09:19:58;;;;;;;27.20;13.67;;;7.20;66.10;;;;;;5082653;28;20585;-81
2022/03/02 09:22:47;;;;;;;24.73;14.43;;;5.90;72.10;;;;;;5081618;28;20295;-82
2022/03/02 09:25:39;;;;;;;29.27;14.97;;;5.60;75.10;;;;;;5067218;28;20226;-80
2022/03/02 09:28:33;;;;;;;28.17;12.83;;;5.70;76.70;;;;;;5080167;28;20216;-77
2022/03/02 09:31:23;;;;;;;27.50;14.63;;;4.90;78.90;;;;;;5083776;28;20231;-81
2022/03/02 09:34:14;;;;;;;27.03;14.37;;;4.90;80.20;;;;;;5083745;28;20269;-81
2022/03/02 09:37:04;;;;;;;29.27;15.37;;;5.10;80.90;;;;;;5076713;28;20227;-81
2022/03/02 09:39:53;;;;;;;30.80;18.55;;;4.90;81.70;;;;;;5067678;28;20442;-82
2022/03/02 09:42:47;;;;;;;27.90;15.87;;;5.10;81.70;;;;;;5082621;28;20585;-82
2022/03/02 09:45:36;;;;;;;34.60;18.75;;;5.10;82.00;;;;;;5077963;28;20432;-82
2022/03/02 09:48:31;;;;;;;34.57;16.70;;;5.10;82.40;;;;;;5080653;28;20223;-82
2022/03/02 09:51:23;;;;;;;31.57;15.80;;;4.80;84.30;;;;;;5067630;28;20221;-82
2022/03/02 09:54:14;;;;;;;34.43;16.37;;;4.70;84.20;;;;;;5068503;28;20689;-84
2022/03/02 09:57:03;;;;;;;28.00;15.53;;;4.90;84.00;;;;;;5065936;28;20220;-82
2022/03/02 09:59:55;;;;;;;27.90;14.83;;;5.00;83.90;;;;;;5061604;28;20254;-81
2022/03/02 10:02:47;;;;;;;25.90;14.77;;;4.80;85.10;;;;;;5081110;28;20227;-83
2022/03/02 10:05:36;;;;;;;32.87;14.13;;;4.90;85.50;;;;;;5082910;28;20583;-83
2022/03/02 10:08:30;;;;;;;26.10;13.50;;;5.00;83.70;;;;;;5068893;28;20218;-84
2022/03/02 10:11:22;;;;;;;24.43;13.17;;;5.10;82.80;;;;;;5085910;28;20237;-84
2022/03/02 10:14:11;;;;;;;24.13;12.17;;;4.80;82.10;;;;;;5067962;28;20237;-82
2022/03/02 10:17:03;;;;;;;30.07;13.40;;;4.90;81.70;;;;;;5081999;28;20554;-82
2022/03/02 10:20:04;;;;;;;26.57;13.13;;;4.90;82.00;;;;;;5069423;28;20233;-83
2022/03/02 10:23:18;;;;;;;27.37;14.23;;;4.90;82.60;;;;;;5081726;28;20849;-83
2022/03/02 10:26:18;;;;;;;23.87;13.30;;;4.80;83.60;;;;;;5064873;28;20242;-83
2022/03/02 10:29:14;;;;;;;25.70;13.43;;;4.90;82.70;;;;;;5082306;28;20215;-83
2022/03/02 10:32:08;;;;;;;25.37;13.57;;;4.90;82.50;;;;;;5083739;28;20221;-84
2022/03/02 10:35:05;;;;;;;29.83;15.00;;;5.00;84.10;;;;;;5072793;28;20306;-83
2022/03/02 10:37:59;;;;;;;28.23;13.97;;;5.10;84.10;;;;;;5063527;28;20232;-83
2022/03/02 10:40:48;;;;;;;29.70;14.07;;;5.10;84.20;;;;;;5079907;28;20232;-83
2022/03/02 10:43:42;;;;;;;30.23;13.53;;;5.10;84.10;;;;;;5073540;28;20226;-81
2022/03/02 10:46:31;;;;;;;24.20;12.83;;;5.00;84.40;;;;;;5080807;28;20216;-83
2022/03/02 10:49:21;;;;;;;23.37;12.93;;;5.00;84.50;;;;;;5061208;28;20337;-72
2022/03/02 10:52:15;;;;;;;27.30;13.53;;;5.30;84.10;;;;;;5070410;28;20936;-71
2022/03/02 10:55:07;;;;;;;22.67;12.13;;;5.40;83.90;;;;;;5072987;28;20214;-73
2022/03/02 10:57:56;;;;;;;24.67;12.63;;;5.40;82.80;;;;;;5074925;28;20215;-71
2022/03/02 11:00:46;;;;;;;24.17;12.90;;;5.40;82.70;;;;;;5064872;28;20310;-71
2022/03/02 11:03:37;;;;;;;21.70;11.87;;;5.50;82.80;;;;;;5076734;28;20251;-71
2022/03/02 11:06:27;;;;;;;18.37;11.27;;;5.50;81.80;;;;;;5062219;28;20572;-70
2022/03/02 11:09:18;;;;;;;20.03;10.87;;;5.40;82.40;;;;;;5063960;28;20226;-71
2022/03/02 11:12:09;;;;;;;21.20;10.97;;;5.40;81.40;;;;;;5074075;28;20219;-69
2022/03/02 11:14:58;;;;;;;19.00;11.33;;;5.30;80.40;;;;;;5062150;28;20238;-71
2022/03/02 11:17:55;;;;;;;22.43;11.57;;;5.50;80.50;;;;;;5077204;28;20709;-69
2022/03/02 11:20:53;;;;;;;21.73;10.53;;;5.70;79.90;;;;;;5080422;28;20829;-71
2022/03/02 11:23:44;;;;;;;24.20;10.37;;;5.40;80.00;;;;;;5081022;28;20226;-71
2022/03/02 11:26:37;;;;;;;23.03;11.13;;;5.30;80.00;;;;;;5082287;28;20226;-72
2022/03/02 11:29:28;;;;;;;23.70;11.13;;;5.30;81.40;;;;;;5079283;28;20247;-74
2022/03/02 11:32:17;;;;;;;21.37;11.33;;;5.30;81.00;;;;;;5078541;28;20291;-71
2022/03/02 11:35:09;;;;;;;22.37;10.70;;;5.50;80.60;;;;;;5078578;28;20226;-70
2022/03/02 11:38:02;;;;;;;21.30;10.97;;;5.60;80.20;;;;;;5075586;28;20251;-70
2022/03/02 11:40:56;;;;;;;23.13;10.37;;;5.60;79.60;;;;;;5069732;28;20313;-70
2022/03/02 11:43:46;;;;;;;19.33;10.60;;;5.50;79.60;;;;;;5083984;28;20234;-72
2022/03/02 11:46:35;;;;;;;19.67;10.70;;;5.30;79.90;;;;;;5066953;28;20211;-71
2022/03/02 11:49:39;;;;;;;16.73;10.03;;;5.30;80.40;;;;;;5065227;28;20685;-71
2022/03/02 11:52:29;;;;;;;20.03;9.90;;;5.40;79.70;;;;;;5069715;28;20219;-72
2022/03/02 11:55:20;;;;;;;16.57;10.10;;;5.50;79.70;;;;;;5077346;28;20215;-71
2022/03/02 11:58:11;;;;;;;20.57;10.73;;;5.70;78.60;;;;;;5082889;28;20228;-72
2022/03/02 12:01:08;;;;;;;18.07;10.30;;;5.70;77.90;;;;;;5079915;28;20218;-72
2022/03/02 12:03:58;;;;;;;19.90;10.30;;;5.80;78.00;;;;;;5064510;28;20237;-71
2022/03/02 12:06:50;;;;;;;18.30;9.50;;;5.90;78.00;;;;;;5062227;28;20215;-72
2022/03/02 12:09:42;;;;;;;16.80;9.23;;;5.90;77.80;;;;;;5064970;28;20219;-70
2022/03/02 12:12:32;;;;;;;18.10;8.90;;;5.90;76.70;;;;;;5077192;28;20227;-70
2022/03/02 12:15:23;;;;;;;22.87;9.50;;;5.90;75.80;;;;;;5081723;28;20295;-70
2022/03/02 12:18:18;;;;;;;24.57;14.93;;;5.80;75.70;;;;;;5062511;28;20744;-70
2022/03/02 12:21:17;;;;;;;15.87;9.40;;;5.70;75.70;;;;;;5065818;28;20591;-71
2022/03/02 12:24:06;;;;;;;16.57;8.63;;;5.70;76.20;;;;;;5081148;28;20574;-70
2022/03/02 12:27:03;;;;;;;16.70;8.10;;;5.80;76.00;;;;;;5065887;28;20222;-71
2022/03/02 12:29:59;;;;;;;17.53;7.57;;;5.80;75.10;;;;;;5077816;28;20273;-70
2022/03/02 12:32:47;;;;;;;14.97;6.93;;;5.90;73.80;;;;;;5080330;28;21028;-71
2022/03/02 12:35:38;;;;;;;13.80;7.53;;;5.90;72.90;;;;;;5079218;28;20224;-70
2022/03/02 12:38:27;;;;;;;16.53;7.77;;;6.00;72.20;;;;;;5065221;28;20246;-70
2022/03/02 12:41:20;;;;;;;17.57;7.03;;;6.00;72.70;;;;;;5080326;28;20231;-70
2022/03/02 12:44:12;;;;;;;15.83;7.60;;;6.00;72.60;;;;;;5079937;28;20232;-68
2022/03/02 12:47:03;;;;;;;12.83;7.33;;;5.90;72.50;;;;;;5077239;28;20716;-69
2022/03/02 12:49:54;;;;;;;13.60;7.80;;;5.90;73.00;;;;;;5063197;28;20234;-71
2022/03/02 12:52:47;;;;;;;14.13;7.97;;;6.00;73.50;;;;;;5064939;28;20238;-70
2022/03/02 12:55:35;;;;;;;16.83;7.93;;;6.10;73.80;;;;;;5063051;28;20230;-68
2022/03/02 12:58:24;;;;;;;12.23;6.77;;;6.00;73.50;;;;;;5078437;28;20958;-69
2022/03/02 13:01:13;;;;;;;12.20;7.13;;;6.00;73.30;;;;;;5077643;28;20219;-71
2022/03/02 13:04:03;;;;;;;16.93;6.37;;;6.00;72.50;;;;;;5081226;28;20604;-70
2022/03/02 13:06:57;;;;;;;16.77;6.77;;;6.00;72.60;;;;;;5069912;28;20792;-69
2022/03/02 13:09:50;;;;;;;16.63;6.53;;;5.90;71.90;;;;;;5079255;28;20226;-70
2022/03/02 13:12:40;;;;;;;15.27;6.87;;;5.90;71.30;;;;;;5075931;28;20220;-72
2022/03/02 13:15:37;;;;;;;14.57;7.40;;;5.90;72.00;;;;;;5079714;28;20216;-70
2022/03/02 13:18:26;;;;;;;16.90;7.40;;;6.00;72.50;;;;;;5064423;28;20224;-69
2022/03/02 13:21:17;;;;;;;12.90;7.00;;;6.00;72.20;;;;;;5061295;28;20215;-68
2022/03/02 13:24:13;;;;;;;13.90;7.17;;;6.10;71.80;;;;;;5067776;28;20230;-69
2022/03/02 13:27:12;;;;;;;13.27;6.90;;;6.10;71.50;;;;;;5061282;28;20268;-68
2022/03/02 13:30:07;;;;;;;15.37;7.87;;;6.10;72.00;;;;;;5064195;28;20224;-69
2022/03/02 13:33:03;;;;;;;11.33;6.33;;;6.00;72.30;;;;;;5065851;28;20257;-71
2022/03/02 13:36:09;;;;;;;14.60;6.83;;;5.90;72.10;;;;;;5078855;28;20269;-69
2022/03/02 13:39:08;;;;;;;17.63;7.23;;;6.00;72.30;;;;;;5078820;28;20253;-70
2022/03/02 13:41:58;;;;;;;14.60;7.40;;;6.00;71.90;;;;;;5067711;28;20227;-69
2022/03/02 13:44:51;;;;;;;18.80;8.73;;;6.00;71.90;;;;;;5079757;28;20220;-71
2022/03/02 13:47:40;;;;;;;13.57;7.93;;;6.00;73.20;;;;;;5061311;28;20698;-70
2022/03/02 13:50:29;;;;;;;13.53;7.70;;;5.80;74.20;;;;;;5063084;28;20230;-67
2022/03/02 13:53:36;;;;;;;15.40;8.00;;;5.80;74.00;;;;;;5064274;28;20330;-70
2022/03/02 13:56:41;;;;;;;15.07;7.93;;;5.80;74.00;;;;;;5065038;28;20211;-69
2022/03/02 13:59:30;;;;;;;16.53;8.20;;;5.90;75.30;;;;;;5078228;28;20234;-69
2022/03/02 14:02:20;;;;;;;15.43;8.43;;;5.90;74.50;;;;;;5077801;28;20234;-71
2022/03/02 14:05:09;;;;;;;14.37;8.67;;;5.80;73.80;;;;;;5077533;28;20305;-70
2022/03/02 14:08:05;;;;;;;13.77;7.73;;;5.80;74.10;;;;;;5072133;28;20250;-70
2022/03/02 14:10:54;;;;;;;15.40;7.97;;;5.70;73.30;;;;;;5079347;28;20393;-70
2022/03/02 14:13:45;;;;;;;12.70;7.47;;;5.70;72.80;;;;;;5079203;28;20222;-69
2022/03/02 14:16:34;;;;;;;14.73;8.87;;;5.80;72.70;;;;;;5065460;28;20247;-70
2022/03/02 14:19:25;;;;;;;14.00;7.63;;;5.80;72.80;;;;;;5064374;28;20242;-69
2022/03/02 14:22:16;;;;;;;14.23;6.70;;;5.80;72.50;;;;;;5080685;28;20229;-70
2022/03/02 14:25:13;;;;;;;16.30;7.10;;;5.80;71.90;;;;;;5075244;28;20243;-70
2022/03/02 14:28:07;;;;;;;12.77;7.33;;;5.80;72.50;;;;;;5065405;28;20772;-71
2022/03/02 14:30:58;;;;;;;14.37;7.80;;;5.80;72.30;;;;;;5075760;28;20225;-70
2022/03/02 14:33:56;;;;;;;11.70;7.10;;;5.80;72.40;;;;;;5055019;28;20715;-69
2022/03/02 14:36:46;;;;;;;13.50;7.20;;;5.80;71.90;;;;;;5056163;28;20216;-70
2022/03/02 14:39:35;;;;;;;15.33;7.00;;;5.90;71.50;;;;;;5058608;28;20231;-71